Crow, Oregon
Current Conditions -  °F | °C
As of 9:54 PM on Sunday 19 Oct 2014 (Local Time) from KEUG Reporting Station
Broken Clouds Broken Clouds  
Wind Chill: 58°   Ceiling: 12000
Heat Index: 58°   Visibility: 10mi
Dew Point: 55°   Wind: 3mph
Humidity: 90%   Direction: 120°ESE
Pressure: 29.75"   Gusts: NA
Location:  44.0685°N, 123.082°W
Report Text: KEUG 200454Z 12003KT 10SM FEW070 BKN120 14/13 A2975 RMK AO2 SLP072 T01440128
Loading
Personal Weather Stations






























Interactive Weather Map
Tropical Storm Tracking
New forecast layout! Learn more

10-Day Weather Forecast

Advertisements
Track Severe Weather on mobile